createdAt,value
2022-08-10T00:00:24.909Z,1013.3
2022-08-10T00:01:40.211Z,1013.3
2022-08-10T00:02:56.513Z,1013.3
2022-08-10T00:04:12.795Z,1013.3
2022-08-10T00:05:29.104Z,1013.3
2022-08-10T00:06:45.383Z,1013.3
2022-08-10T00:08:01.681Z,1013.3
2022-08-10T00:09:17.982Z,1013.3
2022-08-10T00:10:34.279Z,1013.3
2022-08-10T00:11:50.573Z,1013.2
2022-08-10T00:13:06.861Z,1013.3
2022-08-10T00:14:23.151Z,1013.3
2022-08-10T00:15:39.458Z,1013.4
2022-08-10T00:16:55.746Z,1013.4
2022-08-10T00:18:11.057Z,1013.3
2022-08-10T00:19:27.354Z,1013.4
2022-08-10T00:20:43.638Z,1013.4
2022-08-10T00:21:59.946Z,1013.3
2022-08-10T00:23:16.236Z,1013.3
2022-08-10T00:24:32.513Z,1013.3
2022-08-10T00:25:48.809Z,1013.3
2022-08-10T00:27:05.109Z,1013.3
2022-08-10T00:28:21.415Z,1013.3
2022-08-10T00:29:37.699Z,1013.4
2022-08-10T00:30:53.995Z,1013.3
2022-08-10T00:32:10.282Z,1013.3
2022-08-10T00:33:26.584Z,1013.3
2022-08-10T00:34:41.898Z,1013.4
2022-08-10T00:35:58.188Z,1013.3
2022-08-10T00:37:14.474Z,1013.4
2022-08-10T00:38:30.783Z,1013.4
2022-08-10T00:39:47.066Z,1013.4
2022-08-10T00:41:03.356Z,1013.3
2022-08-10T00:43:35.947Z,1013.3
2022-08-10T00:44:52.251Z,1013.3
2022-08-10T00:46:08.542Z,1013.4
2022-08-10T00:47:24.826Z,1013.3
2022-08-10T00:48:41.123Z,1013.3
2022-08-10T00:49:57.421Z,1013.3
2022-08-10T00:51:12.741Z,1013.2
2022-08-10T00:52:29.027Z,1013.2
2022-08-10T00:53:45.317Z,1013.3
2022-08-10T00:55:01.607Z,1013.2
2022-08-10T00:56:17.916Z,1013.3
2022-08-10T00:57:34.204Z,1013.2
2022-08-10T00:58:50.487Z,1013.3
2022-08-10T01:00:06.787Z,1013.3
2022-08-10T01:01:23.082Z,1013.3
2022-08-10T01:02:39.382Z,1013.2
2022-08-10T01:03:55.665Z,1013.2
2022-08-10T01:05:11.975Z,1013.1
2022-08-10T01:06:28.000Z,1013.2
2022-08-10T01:07:43.567Z,1013.2
2022-08-10T01:08:59.864Z,1013.2
2022-08-10T01:10:16.160Z,1013.2
2022-08-10T01:11:32.449Z,1013.2
2022-08-10T01:12:48.744Z,1013.2
2022-08-10T01:14:05.045Z,1013.3
2022-08-10T01:15:21.327Z,1013.2
2022-08-10T01:16:37.631Z,1013.2
2022-08-10T01:17:53.923Z,1013.2
2022-08-10T01:19:10.215Z,1013.2
2022-08-10T01:20:26.509Z,1013.2
2022-08-10T01:21:42.802Z,1013.2
2022-08-10T01:22:59.097Z,1013.2
2022-08-10T01:24:14.411Z,1013.2
2022-08-10T01:25:30.701Z,1013.2
2022-08-10T01:26:46.996Z,1013.2
2022-08-10T01:28:03.283Z,1013.2
2022-08-10T01:29:19.586Z,1013.2
2022-08-10T01:30:35.888Z,1013.2
2022-08-10T01:31:52.162Z,1013.2
2022-08-10T01:33:08.471Z,1013.3
2022-08-10T01:34:24.762Z,1013.3
2022-08-10T01:35:41.061Z,1013.3
2022-08-10T01:36:57.343Z,1013.3
2022-08-10T01:38:13.632Z,1013.3
2022-08-10T01:39:29.942Z,1013.3
2022-08-10T01:40:45.248Z,1013.3
2022-08-10T01:42:01.541Z,1013.3
2022-08-10T01:43:17.836Z,1013.3
2022-08-10T01:44:34.131Z,1013.3
2022-08-10T01:45:50.431Z,1013.3
2022-08-10T01:47:06.716Z,1013.3
2022-08-10T01:48:23.012Z,1013.3
2022-08-10T01:49:39.303Z,1013.3
2022-08-10T01:52:11.890Z,1013.3
2022-08-10T01:53:28.186Z,1013.3
2022-08-10T01:54:44.488Z,1013.3
2022-08-10T01:56:00.775Z,1013.2
2022-08-10T01:57:16.077Z,1013.2
2022-08-10T01:58:32.384Z,1013.2
2022-08-10T01:59:48.673Z,1013.2
2022-08-10T02:01:04.965Z,1013.2
2022-08-10T02:02:21.261Z,1013.2
2022-08-10T02:03:37.552Z,1013.2
2022-08-10T02:04:53.840Z,1013.3
2022-08-10T02:07:26.439Z,1013.2
2022-08-10T02:08:42.729Z,1013.2
2022-08-10T02:09:59.035Z,1013.2
2022-08-10T02:11:15.310Z,1013.3
2022-08-10T02:12:31.618Z,1013.2
2022-08-10T02:13:46.928Z,1013.2
2022-08-10T02:15:03.208Z,1013.3
2022-08-10T02:16:19.502Z,1013.2
2022-08-10T02:17:35.800Z,1013.2
2022-08-10T02:18:52.090Z,1013.2
2022-08-10T02:20:08.401Z,1013.2
2022-08-10T02:21:24.678Z,1013.2
2022-08-10T02:22:40.975Z,1013.3
2022-08-10T02:23:57.281Z,1013.2
2022-08-10T02:25:13.571Z,1013.2
2022-08-10T02:26:29.860Z,1013.2
2022-08-10T02:27:46.152Z,1013.1
2022-08-10T02:29:02.458Z,1013.2
2022-08-10T02:30:17.754Z,1013.2
2022-08-10T02:31:34.065Z,1013.2
2022-08-10T02:32:50.359Z,1013.2
2022-08-10T02:34:06.635Z,1013.2
2022-08-10T02:35:22.942Z,1013.1
2022-08-10T02:36:39.229Z,1013.1
2022-08-10T02:37:55.529Z,1013.1
2022-08-10T02:39:11.823Z,1013.1
2022-08-10T02:40:28.124Z,1013.2
2022-08-10T02:41:44.403Z,1013.2
2022-08-10T02:43:00.707Z,1013.1
2022-08-10T02:44:16.999Z,1013.1
2022-08-10T02:45:33.296Z,1013.1
2022-08-10T02:46:48.598Z,1013.1
2022-08-10T02:48:04.899Z,1013.2
2022-08-10T02:49:21.195Z,1013.2
2022-08-10T02:50:37.493Z,1013.2
2022-08-10T02:51:53.786Z,1013.3
2022-08-10T02:53:10.072Z,1013.2
2022-08-10T02:54:26.371Z,1013.1
2022-08-10T02:55:42.649Z,1013.2
2022-08-10T02:56:58.951Z,1013.2
2022-08-10T02:58:15.238Z,1013.2
2022-08-10T02:59:31.540Z,1013.2
2022-08-10T03:00:47.839Z,1013.2
2022-08-10T03:02:04.127Z,1013.2
2022-08-10T03:03:19.444Z,1013.3
2022-08-10T03:04:35.725Z,1013.3
2022-08-10T03:05:52.034Z,1013.3
2022-08-10T03:07:08.313Z,1013.3
2022-08-10T03:08:24.607Z,1013.3
2022-08-10T03:09:40.852Z,1013.3
2022-08-10T03:10:57.144Z,1013.3
2022-08-10T03:12:13.437Z,1013.3
2022-08-10T03:13:29.698Z,1013.3
2022-08-10T03:14:45.943Z,1013.3
2022-08-10T03:16:02.234Z,1013.3
2022-08-10T03:17:18.522Z,1013.3
2022-08-10T03:18:34.776Z,1013.3
2022-08-10T03:19:50.038Z,1013.3
2022-08-10T03:21:06.272Z,1013.3
2022-08-10T03:22:22.578Z,1013.3
2022-08-10T03:23:38.819Z,1013.3
2022-08-10T03:24:55.069Z,1013.3
2022-08-10T03:26:11.303Z,1013.3
2022-08-10T03:28:43.798Z,1013.3
2022-08-10T03:30:00.021Z,1013.3
2022-08-10T03:31:16.264Z,1013.3
2022-08-10T03:32:32.513Z,1013.3
2022-08-10T03:33:48.740Z,1013.3
2022-08-10T03:35:04.997Z,1013.3
2022-08-10T03:36:20.249Z,1013.3
2022-08-10T03:37:36.494Z,1013.3
2022-08-10T03:38:52.734Z,1013.3
2022-08-10T03:40:08.964Z,1013.3
2022-08-10T03:41:25.209Z,1013.3
2022-08-10T03:42:41.452Z,1013.3
2022-08-10T03:43:56.702Z,1013.3
2022-08-10T03:45:12.938Z,1013.4
2022-08-10T03:46:29.189Z,1013.4
2022-08-10T03:47:45.433Z,1013.4
2022-08-10T03:49:01.661Z,1013.4
2022-08-10T03:50:17.910Z,1013.4
2022-08-10T03:51:34.143Z,1013.5
2022-08-10T03:52:50.379Z,1013.5
2022-08-10T03:54:06.629Z,1013.4
2022-08-10T03:55:22.867Z,1013.5
2022-08-10T03:56:39.104Z,1013.4
2022-08-10T03:57:55.357Z,1013.4
2022-08-10T03:59:11.590Z,1013.4
2022-08-10T04:00:26.840Z,1013.4
2022-08-10T04:01:43.077Z,1013.4
2022-08-10T04:02:59.322Z,1013.4
2022-08-10T04:04:15.553Z,1013.4
2022-08-10T04:05:31.800Z,1013.4
2022-08-10T04:06:48.045Z,1013.4
2022-08-10T04:08:04.276Z,1013.4
2022-08-10T04:09:20.518Z,1013.4
2022-08-10T04:10:36.773Z,1013.5
2022-08-10T04:11:53.003Z,1013.5
2022-08-10T04:13:09.245Z,1013.5
2022-08-10T04:14:25.483Z,1013.5
2022-08-10T04:15:41.730Z,1013.5
2022-08-10T04:16:56.986Z,1013.5
2022-08-10T04:18:13.229Z,1013.5
2022-08-10T04:19:29.456Z,1013.5
2022-08-10T04:20:45.710Z,1013.5
2022-08-10T04:22:01.933Z,1013.5
2022-08-10T04:23:18.180Z,1013.5
2022-08-10T04:24:34.429Z,1013.5
2022-08-10T04:25:50.670Z,1013.6
2022-08-10T04:27:06.896Z,1013.6
2022-08-10T04:28:23.147Z,1013.6
2022-08-10T04:29:39.380Z,1013.6
2022-08-10T04:30:55.614Z,1013.6
2022-08-10T04:32:11.863Z,1013.5
2022-08-10T04:33:27.118Z,1013.5
2022-08-10T04:34:43.353Z,1013.5
2022-08-10T04:35:59.599Z,1013.5
2022-08-10T04:37:15.829Z,1013.5
2022-08-10T04:38:32.068Z,1013.5
2022-08-10T04:39:48.313Z,1013.5
2022-08-10T04:41:04.556Z,1013.5
2022-08-10T04:42:20.800Z,1013.5
2022-08-10T04:43:37.035Z,1013.5
2022-08-10T04:44:53.278Z,1013.5
2022-08-10T04:47:25.771Z,1013.5
2022-08-10T04:48:41.995Z,1013.6
2022-08-10T04:49:57.262Z,1013.6
2022-08-10T04:51:13.487Z,1013.6
2022-08-10T04:52:29.738Z,1013.6
2022-08-10T04:53:45.967Z,1013.6
2022-08-10T04:55:02.205Z,1013.6
2022-08-10T04:56:18.463Z,1013.6
2022-08-10T04:57:34.696Z,1013.6
2022-08-10T04:58:50.931Z,1013.6
2022-08-10T05:00:07.177Z,1013.6
2022-08-10T05:01:23.418Z,1013.7
2022-08-10T05:02:39.663Z,1013.7
2022-08-10T05:03:55.893Z,1013.7
2022-08-10T05:05:12.128Z,1013.8
2022-08-10T05:06:27.383Z,1013.7
2022-08-10T05:07:43.640Z,1013.7
2022-08-10T05:08:59.881Z,1013.8
2022-08-10T05:10:16.118Z,1013.8
2022-08-10T05:11:32.359Z,1013.7
2022-08-10T05:12:48.587Z,1013.7
2022-08-10T05:14:04.821Z,1013.8
2022-08-10T05:15:21.073Z,1013.8
2022-08-10T05:16:37.306Z,1013.8
2022-08-10T05:17:53.556Z,1013.8
2022-08-10T05:19:09.784Z,1013.8
2022-08-10T05:20:26.027Z,1013.9
2022-08-10T05:21:42.273Z,1013.8
2022-08-10T05:22:57.538Z,1013.8
2022-08-10T05:25:29.999Z,1013.8
2022-08-10T05:26:46.244Z,1013.8
2022-08-10T05:28:02.493Z,1013.8
2022-08-10T05:29:18.734Z,1013.8
2022-08-10T05:30:34.977Z,1013.8
2022-08-10T05:31:51.219Z,1013.8
2022-08-10T05:33:07.440Z,1013.8
2022-08-10T05:34:23.678Z,1013.9
2022-08-10T05:35:39.933Z,1013.9
2022-08-10T05:36:56.160Z,1013.8
2022-08-10T05:38:12.401Z,1013.9
2022-08-10T05:39:27.666Z,1013.9
2022-08-10T05:40:43.909Z,1013.8
2022-08-10T05:42:00.143Z,1013.9
2022-08-10T05:43:16.378Z,1013.8
2022-08-10T05:44:32.630Z,1013.8
2022-08-10T05:45:48.873Z,1013.7
2022-08-10T05:47:05.114Z,1013.7
2022-08-10T05:48:21.354Z,1013.7
2022-08-10T05:49:37.593Z,1013.7
2022-08-10T05:50:53.823Z,1013.8
2022-08-10T05:52:10.066Z,1013.8
2022-08-10T05:53:26.314Z,1013.7
2022-08-10T05:54:42.552Z,1013.8
2022-08-10T05:55:57.809Z,1013.8
2022-08-10T05:57:14.036Z,1013.8
2022-08-10T05:58:30.285Z,1013.8
2022-08-10T05:59:46.522Z,1013.8
2022-08-10T06:01:02.753Z,1013.8
2022-08-10T06:02:18.999Z,1013.8
2022-08-10T06:03:35.245Z,1013.8
2022-08-10T06:04:51.475Z,1013.8
2022-08-10T06:06:07.725Z,1013.8
2022-08-10T06:07:23.964Z,1013.8
2022-08-10T06:08:40.214Z,1013.8
2022-08-10T06:09:56.448Z,1013.9
2022-08-10T06:11:12.691Z,1013.8
2022-08-10T06:12:27.934Z,1013.8
2022-08-10T06:13:44.190Z,1013.9
2022-08-10T06:15:00.411Z,1013.9
2022-08-10T06:16:16.658Z,1013.9
2022-08-10T06:17:32.911Z,1013.9
2022-08-10T06:18:49.142Z,1013.9
2022-08-10T06:20:05.379Z,1013.9
2022-08-10T06:21:21.625Z,1013.9
2022-08-10T06:22:37.852Z,1013.9
2022-08-10T06:23:54.102Z,1013.9
2022-08-10T06:25:10.333Z,1014
2022-08-10T06:26:26.574Z,1013.9
2022-08-10T06:27:42.833Z,1014
2022-08-10T06:28:58.085Z,1014
2022-08-10T06:30:14.321Z,1014
2022-08-10T06:31:30.560Z,1014
2022-08-10T06:32:46.793Z,1014
2022-08-10T06:34:03.050Z,1014
2022-08-10T06:35:19.288Z,1014
2022-08-10T06:36:35.524Z,1014
2022-08-10T06:37:51.758Z,1014
2022-08-10T06:39:08.006Z,1014.1
2022-08-10T06:40:24.237Z,1014.1
2022-08-10T06:41:40.484Z,1014
2022-08-10T06:42:56.724Z,1014.1
2022-08-10T06:44:12.958Z,1014.1
2022-08-10T06:45:28.215Z,1014
2022-08-10T06:46:44.448Z,1014.1
2022-08-10T06:48:00.705Z,1014.1
2022-08-10T06:49:16.935Z,1014.1
2022-08-10T06:50:33.174Z,1014.1
2022-08-10T06:51:49.408Z,1014.1
2022-08-10T06:53:05.659Z,1014.1
2022-08-10T06:54:21.904Z,1014
2022-08-10T06:55:38.141Z,1014
2022-08-10T06:56:54.380Z,1014
2022-08-10T06:58:10.625Z,1014.1
2022-08-10T06:59:26.851Z,1014
2022-08-10T07:00:43.093Z,1014
2022-08-10T07:01:58.359Z,1014
2022-08-10T07:03:14.605Z,1013.9
2022-08-10T07:04:30.835Z,1013.9
2022-08-10T07:05:47.074Z,1013.9
2022-08-10T07:07:03.313Z,1013.9
2022-08-10T07:08:19.566Z,1013.9
2022-08-10T07:09:35.805Z,1014
2022-08-10T07:10:52.032Z,1013.9
2022-08-10T07:12:08.271Z,1013.9
2022-08-10T07:13:24.518Z,1013.9
2022-08-10T07:14:40.755Z,1013.9
2022-08-10T07:15:57.003Z,1013.9
2022-08-10T07:17:13.242Z,1013.9
2022-08-10T07:18:28.499Z,1013.9
2022-08-10T07:19:44.724Z,1013.9
2022-08-10T07:21:00.966Z,1013.9
2022-08-10T07:22:17.221Z,1013.9
2022-08-10T07:23:33.460Z,1013.9
2022-08-10T07:24:49.682Z,1013.9
2022-08-10T07:26:05.941Z,1013.9
2022-08-10T07:27:22.173Z,1013.9
2022-08-10T07:28:38.421Z,1013.8
2022-08-10T07:29:54.650Z,1013.9
2022-08-10T07:31:10.888Z,1013.9
2022-08-10T07:32:27.142Z,1013.9
2022-08-10T07:33:43.375Z,1013.9
2022-08-10T07:34:58.632Z,1013.9
2022-08-10T07:36:14.877Z,1013.9
2022-08-10T07:37:31.099Z,1013.9
2022-08-10T07:38:47.348Z,1013.9
2022-08-10T07:40:03.597Z,1013.9
2022-08-10T07:41:19.818Z,1013.9
2022-08-10T07:42:36.065Z,1013.9
2022-08-10T07:43:52.317Z,1013.9
2022-08-10T07:45:08.540Z,1013.9
2022-08-10T07:46:24.784Z,1013.9
2022-08-10T07:47:41.020Z,1014
2022-08-10T07:48:57.271Z,1013.9
2022-08-10T07:50:13.505Z,1013.9
2022-08-10T07:51:28.761Z,1013.9
2022-08-10T07:52:45.001Z,1013.9
2022-08-10T07:54:01.249Z,1013.9
2022-08-10T07:55:17.482Z,1013.9
2022-08-10T07:56:33.716Z,1013.8
2022-08-10T07:57:49.958Z,1013.8
2022-08-10T07:59:05.219Z,1013.8
2022-08-10T08:00:21.466Z,1013.8
2022-08-10T08:01:37.716Z,1013.9
2022-08-10T08:02:53.940Z,1013.9
2022-08-10T08:04:10.192Z,1013.9
2022-08-10T08:05:26.424Z,1013.9
2022-08-10T08:06:42.672Z,1013.9
2022-08-10T08:07:58.898Z,1013.8
2022-08-10T08:09:15.145Z,1013.9
2022-08-10T08:10:31.376Z,1013.8
2022-08-10T08:11:47.630Z,1013.9
2022-08-10T08:13:03.879Z,1013.9
2022-08-10T08:14:20.106Z,1013.8
2022-08-10T08:15:35.360Z,1013.9
2022-08-10T08:16:51.607Z,1013.9
2022-08-10T08:18:07.841Z,1013.9
2022-08-10T08:19:24.083Z,1013.9
2022-08-10T08:20:40.330Z,1013.8
2022-08-10T08:21:56.571Z,1013.8
2022-08-10T08:23:12.794Z,1013.8
2022-08-10T08:24:29.035Z,1013.9
2022-08-10T08:25:45.288Z,1013.8
2022-08-10T08:27:01.523Z,1013.9
2022-08-10T08:28:17.761Z,1013.9
2022-08-10T08:29:34.007Z,1013.8
2022-08-10T08:30:50.247Z,1013.9
2022-08-10T08:32:05.501Z,1013.9
2022-08-10T08:33:21.735Z,1013.9
2022-08-10T08:34:37.983Z,1013.9
2022-08-10T08:35:54.220Z,1013.8
2022-08-10T08:37:10.452Z,1013.8
2022-08-10T08:38:26.704Z,1013.8
2022-08-10T08:39:42.942Z,1013.8
2022-08-10T08:40:59.170Z,1013.8
2022-08-10T08:42:15.414Z,1013.8
2022-08-10T08:43:31.651Z,1013.8
2022-08-10T08:44:47.890Z,1013.8
2022-08-10T08:46:04.130Z,1013.8
2022-08-10T08:47:20.384Z,1013.8
2022-08-10T08:48:35.636Z,1013.8
2022-08-10T08:49:51.880Z,1013.8
2022-08-10T08:51:08.117Z,1013.8
2022-08-10T08:52:24.346Z,1013.7
2022-08-10T08:53:40.599Z,1013.7
2022-08-10T08:54:56.847Z,1013.6
2022-08-10T08:56:13.072Z,1013.7
2022-08-10T08:57:29.319Z,1013.6
2022-08-10T08:58:45.558Z,1013.6
2022-08-10T09:00:01.797Z,1013.6
2022-08-10T09:01:18.030Z,1013.6
2022-08-10T09:02:34.284Z,1013.6
2022-08-10T09:03:50.521Z,1013.6
2022-08-10T09:05:05.781Z,1013.6
2022-08-10T09:06:22.020Z,1013.6
2022-08-10T09:07:38.261Z,1013.6
2022-08-10T09:08:54.497Z,1013.6
2022-08-10T09:10:10.740Z,1013.5
2022-08-10T09:11:26.986Z,1013.6
2022-08-10T09:12:43.220Z,1013.6
2022-08-10T09:13:59.454Z,1013.6
2022-08-10T09:15:15.696Z,1013.5
2022-08-10T09:16:31.931Z,1013.6
2022-08-10T09:17:48.170Z,1013.6
2022-08-10T09:19:04.410Z,1013.5
2022-08-10T09:20:20.663Z,1013.6
2022-08-10T09:21:35.915Z,1013.5
2022-08-10T09:22:52.144Z,1013.5
2022-08-10T09:24:08.395Z,1013.5
2022-08-10T09:25:24.637Z,1013.5
2022-08-10T09:26:40.879Z,1013.5
2022-08-10T09:27:57.120Z,1013.5
2022-08-10T09:29:13.342Z,1013.5
2022-08-10T09:30:29.603Z,1013.5
2022-08-10T09:31:45.826Z,1013.6
2022-08-10T09:33:02.084Z,1013.6
2022-08-10T09:34:18.314Z,1013.5
2022-08-10T09:35:34.547Z,1013.5
2022-08-10T09:36:50.791Z,1013.5
2022-08-10T09:38:06.044Z,1013.5
2022-08-10T09:39:22.280Z,1013.5
2022-08-10T09:40:38.529Z,1013.5
2022-08-10T09:41:54.774Z,1013.4
2022-08-10T09:43:11.024Z,1013.5
2022-08-10T09:44:27.248Z,1013.4
2022-08-10T09:45:43.489Z,1013.4
2022-08-10T09:46:59.719Z,1013.5
2022-08-10T09:48:15.979Z,1013.4
2022-08-10T09:49:32.205Z,1013.4
2022-08-10T09:50:48.465Z,1013.4
2022-08-10T09:52:04.701Z,1013.3
2022-08-10T09:53:20.933Z,1013.4
2022-08-10T09:54:36.185Z,1013.4
2022-08-10T09:55:52.427Z,1013.4
2022-08-10T09:57:08.668Z,1013.4
2022-08-10T09:58:24.920Z,1013.3
2022-08-10T09:59:41.149Z,1013.3
2022-08-10T10:00:57.392Z,1013.3
2022-08-10T10:02:13.623Z,1013.3
2022-08-10T10:03:29.860Z,1013.3
2022-08-10T10:04:46.103Z,1013.3
2022-08-10T10:06:02.349Z,1013.2
2022-08-10T10:07:18.596Z,1013.3
2022-08-10T10:08:34.842Z,1013.3
2022-08-10T10:09:51.081Z,1013.2
2022-08-10T10:11:06.333Z,1013.2
2022-08-10T10:12:22.564Z,1013.2
2022-08-10T10:13:38.814Z,1013.2
2022-08-10T10:14:55.048Z,1013.2
2022-08-10T10:16:11.290Z,1013.2
2022-08-10T10:17:27.526Z,1013.2
2022-08-10T10:18:43.000Z,1013.2
2022-08-10T10:20:00.019Z,1013.1
2022-08-10T10:21:16.255Z,1013.1
2022-08-10T10:22:32.000Z,1013.1
2022-08-10T10:23:48.728Z,1013.1
2022-08-10T10:25:04.962Z,1013.1
2022-08-10T10:26:21.213Z,1013.1
2022-08-10T10:27:36.470Z,1013.1
2022-08-10T10:28:52.715Z,1013.1
2022-08-10T10:30:08.952Z,1013.1
2022-08-10T10:31:25.196Z,1013
2022-08-10T10:32:41.431Z,1013
2022-08-10T10:33:57.659Z,1013
2022-08-10T10:35:13.912Z,1013
2022-08-10T10:36:30.160Z,1013
2022-08-10T10:37:46.382Z,1013
2022-08-10T10:39:02.634Z,1012.9
2022-08-10T10:40:18.865Z,1012.9
2022-08-10T10:41:35.100Z,1012.8
2022-08-10T10:42:51.349Z,1012.9
2022-08-10T10:44:06.603Z,1012.9
2022-08-10T10:45:22.853Z,1012.9
2022-08-10T10:46:39.090Z,1012.9
2022-08-10T10:47:55.321Z,1012.8
2022-08-10T10:49:11.571Z,1012.8
2022-08-10T10:50:27.806Z,1012.8
2022-08-10T10:51:44.056Z,1012.8
2022-08-10T10:53:00.294Z,1012.8
2022-08-10T10:54:16.541Z,1012.8
2022-08-10T10:55:32.758Z,1012.8
2022-08-10T10:56:49.018Z,1012.8
2022-08-10T10:58:05.253Z,1012.8
2022-08-10T10:59:21.503Z,1012.7
2022-08-10T11:00:36.757Z,1012.7
2022-08-10T11:01:52.982Z,1012.7
2022-08-10T11:03:09.225Z,1012.7
2022-08-10T11:04:25.470Z,1012.7
2022-08-10T11:05:41.702Z,1012.7
2022-08-10T11:06:57.959Z,1012.7
2022-08-10T11:08:14.192Z,1012.7
2022-08-10T11:10:46.663Z,1012.6
2022-08-10T11:12:02.904Z,1012.6
2022-08-10T11:13:19.147Z,1012.6
2022-08-10T11:14:35.397Z,1012.6
2022-08-10T11:15:51.641Z,1012.7
2022-08-10T11:17:06.888Z,1012.7
2022-08-10T11:18:23.120Z,1012.6
2022-08-10T11:19:39.356Z,1012.6
2022-08-10T11:20:55.618Z,1012.6
2022-08-10T11:22:11.843Z,1012.6
2022-08-10T11:23:28.093Z,1012.6
2022-08-10T11:24:44.326Z,1012.6
2022-08-10T11:26:00.570Z,1012.6
2022-08-10T11:27:16.812Z,1012.6
2022-08-10T11:28:33.056Z,1012.6
2022-08-10T11:29:49.295Z,1012.6
2022-08-10T11:31:05.527Z,1012.5
2022-08-10T11:32:21.768Z,1012.5
2022-08-10T11:33:37.036Z,1012.5
2022-08-10T11:34:53.279Z,1012.5
2022-08-10T11:36:09.504Z,1012.5
2022-08-10T11:37:25.747Z,1012.5
2022-08-10T11:38:41.992Z,1012.5
2022-08-10T11:39:58.237Z,1012.5
2022-08-10T11:41:14.461Z,1012.5
2022-08-10T11:42:30.718Z,1012.5
2022-08-10T11:43:46.940Z,1012.4
2022-08-10T11:45:03.197Z,1012.5
2022-08-10T11:46:19.420Z,1012.5
2022-08-10T11:47:35.669Z,1012.5
2022-08-10T11:48:51.903Z,1012.5
2022-08-10T11:50:07.159Z,1012.5
2022-08-10T11:51:23.400Z,1012.5
2022-08-10T11:53:55.884Z,1012.5
2022-08-10T11:55:12.122Z,1012.6
2022-08-10T11:56:28.374Z,1012.5
2022-08-10T11:57:44.608Z,1012.6
2022-08-10T11:59:00.842Z,1012.7
2022-08-10T12:00:17.079Z,1012.6
2022-08-10T12:01:33.334Z,1012.5
2022-08-10T12:02:49.557Z,1012.6
2022-08-10T12:04:05.799Z,1012.6
2022-08-10T12:05:22.057Z,1012.5
2022-08-10T12:06:37.289Z,1012.6
2022-08-10T12:07:53.547Z,1012.6
2022-08-10T12:09:09.782Z,1012.6
2022-08-10T12:10:26.020Z,1012.6
2022-08-10T12:11:42.268Z,1012.5
2022-08-10T12:12:58.509Z,1012.5
2022-08-10T12:14:13.766Z,1012.4
2022-08-10T12:15:30.000Z,1012.5
2022-08-10T12:16:46.257Z,1012.5
2022-08-10T12:18:02.481Z,1012.5
2022-08-10T12:19:18.730Z,1012.4
2022-08-10T12:20:34.960Z,1012.4
2022-08-10T12:21:51.201Z,1012.4
2022-08-10T12:23:07.458Z,1012.4
2022-08-10T12:24:23.698Z,1012.3
2022-08-10T12:25:39.922Z,1012.3
2022-08-10T12:26:56.173Z,1012.4
2022-08-10T12:28:12.416Z,1012.3
2022-08-10T12:29:28.639Z,1012.3
2022-08-10T12:30:44.888Z,1012.3
2022-08-10T12:32:00.147Z,1012.3
2022-08-10T12:33:16.370Z,1012.3
2022-08-10T12:34:32.619Z,1012.2
2022-08-10T12:35:48.868Z,1012.2
2022-08-10T12:37:05.100Z,1012.2
2022-08-10T12:38:21.356Z,1012.2
2022-08-10T12:39:37.595Z,1012.2
2022-08-10T12:40:53.835Z,1012.1
2022-08-10T12:42:10.069Z,1012.1
2022-08-10T12:43:26.306Z,1012.1
2022-08-10T12:44:42.538Z,1012.1
2022-08-10T12:45:58.788Z,1012
2022-08-10T12:47:15.022Z,1012
2022-08-10T12:48:31.271Z,1012
2022-08-10T12:49:46.518Z,1012
2022-08-10T12:51:02.771Z,1012
2022-08-10T12:52:19.013Z,1012
2022-08-10T12:53:35.237Z,1012
2022-08-10T12:54:51.490Z,1012
2022-08-10T12:56:07.724Z,1012
2022-08-10T12:57:23.963Z,1012
2022-08-10T12:58:40.215Z,1011.9
2022-08-10T12:59:56.444Z,1011.9
2022-08-10T13:01:12.691Z,1011.9
2022-08-10T13:02:28.934Z,1011.9
2022-08-10T13:03:45.178Z,1011.8
2022-08-10T13:05:01.400Z,1011.8
2022-08-10T13:06:16.670Z,1011.9
2022-08-10T13:07:32.897Z,1011.9
2022-08-10T13:08:49.141Z,1011.8
2022-08-10T13:10:05.381Z,1011.8
2022-08-10T13:11:21.625Z,1011.8
2022-08-10T13:12:37.873Z,1011.8
2022-08-10T13:13:54.098Z,1011.8
2022-08-10T13:15:10.348Z,1011.8
2022-08-10T13:16:26.596Z,1011.8
2022-08-10T13:17:42.830Z,1011.8
2022-08-10T13:18:59.066Z,1011.7
2022-08-10T13:20:15.305Z,1011.8
2022-08-10T13:21:31.545Z,1011.7
2022-08-10T13:22:46.795Z,1011.7
2022-08-10T13:24:03.035Z,1011.7
2022-08-10T13:25:19.284Z,1011.7
2022-08-10T13:26:35.519Z,1011.6
2022-08-10T13:27:51.774Z,1011.6
2022-08-10T13:29:07.998Z,1011.7
2022-08-10T13:30:24.247Z,1011.6
2022-08-10T13:31:40.494Z,1011.6
2022-08-10T13:32:56.711Z,1011.6
2022-08-10T13:34:12.960Z,1011.5
2022-08-10T13:35:29.193Z,1011.6
2022-08-10T13:36:45.442Z,1011.6
2022-08-10T13:38:01.676Z,1011.6
2022-08-10T13:39:16.951Z,1011.6
2022-08-10T13:40:33.182Z,1011.6
2022-08-10T13:41:49.418Z,1011.5
2022-08-10T13:43:05.664Z,1011.5
2022-08-10T13:44:21.898Z,1011.6
2022-08-10T13:45:38.144Z,1011.5
2022-08-10T13:46:54.379Z,1011.5
2022-08-10T13:48:10.608Z,1011.6
2022-08-10T13:49:26.872Z,1011.5
2022-08-10T13:50:43.112Z,1011.5
2022-08-10T13:51:59.342Z,1011.5
2022-08-10T13:53:15.579Z,1011.5
2022-08-10T13:54:31.833Z,1011.5
2022-08-10T13:55:47.091Z,1011.5
2022-08-10T13:57:03.305Z,1011.6
2022-08-10T13:58:19.572Z,1011.4
2022-08-10T13:59:35.803Z,1011.4
2022-08-10T14:00:52.044Z,1011.4
2022-08-10T14:02:08.293Z,1011.4
2022-08-10T14:03:24.509Z,1011.4
2022-08-10T14:04:40.756Z,1011.4
2022-08-10T14:05:57.005Z,1011.4
2022-08-10T14:07:13.242Z,1011.4
2022-08-10T14:08:29.489Z,1011.4
2022-08-10T14:09:45.719Z,1011.4
2022-08-10T14:11:01.964Z,1011.3
2022-08-10T14:12:17.212Z,1011.4
2022-08-10T14:13:33.451Z,1011.4
2022-08-10T14:14:49.690Z,1011.4
2022-08-10T14:16:05.934Z,1011.4
2022-08-10T14:17:22.178Z,1011.4
2022-08-10T14:18:38.429Z,1011.4
2022-08-10T14:19:54.653Z,1011.4
2022-08-10T14:21:10.910Z,1011.4
2022-08-10T14:22:27.153Z,1011.4
2022-08-10T14:23:43.379Z,1011.4
2022-08-10T14:24:59.616Z,1011.3
2022-08-10T14:26:15.864Z,1011.3
2022-08-10T14:27:32.110Z,1011.3
2022-08-10T14:28:47.351Z,1011.3
2022-08-10T14:30:03.601Z,1011.3
2022-08-10T14:31:19.827Z,1011.3
2022-08-10T14:32:36.085Z,1011.3
2022-08-10T14:33:52.318Z,1011.3
2022-08-10T14:35:08.000Z,1011.2
2022-08-10T14:36:24.792Z,1011.3
2022-08-10T14:37:41.040Z,1011.2
2022-08-10T14:38:57.272Z,1011.3
2022-08-10T14:40:13.511Z,1011.2
2022-08-10T14:41:29.755Z,1011.2
2022-08-10T14:42:46.005Z,1011.2
2022-08-10T14:44:02.249Z,1011.1
2022-08-10T14:45:17.502Z,1011.1
2022-08-10T14:46:33.729Z,1011.1
2022-08-10T14:47:49.980Z,1011.1
2022-08-10T14:49:06.221Z,1011
2022-08-10T14:50:22.463Z,1011.1
2022-08-10T14:51:38.693Z,1011.1
2022-08-10T14:52:54.932Z,1011.1
2022-08-10T14:54:11.174Z,1011.1
2022-08-10T14:55:27.427Z,1011.1
2022-08-10T14:56:43.657Z,1011.1
2022-08-10T14:57:59.894Z,1011.1
2022-08-10T14:59:16.147Z,1011
2022-08-10T15:00:32.000Z,1011.1
2022-08-10T15:01:47.626Z,1011.1
2022-08-10T15:03:03.876Z,1011.1
2022-08-10T15:04:20.111Z,1011
2022-08-10T15:05:36.359Z,1011
2022-08-10T15:06:52.585Z,1011
2022-08-10T15:08:08.831Z,1011
2022-08-10T15:09:25.084Z,1011
2022-08-10T15:10:41.325Z,1011
2022-08-10T15:11:57.551Z,1011
2022-08-10T15:13:13.800Z,1011
2022-08-10T15:14:30.036Z,1011
2022-08-10T15:15:46.266Z,1011
2022-08-10T15:17:02.522Z,1011
2022-08-10T15:18:17.760Z,1011
2022-08-10T15:19:34.021Z,1011.1
2022-08-10T15:20:50.265Z,1011
2022-08-10T15:22:06.487Z,1011
2022-08-10T15:24:38.979Z,1010.9
2022-08-10T15:25:55.222Z,1010.9
2022-08-10T15:27:11.464Z,1010.9
2022-08-10T15:28:27.697Z,1010.9
2022-08-10T15:29:43.936Z,1010.8
2022-08-10T15:31:00.170Z,1010.9
2022-08-10T15:32:16.405Z,1010.9
2022-08-10T15:33:32.667Z,1010.8
2022-08-10T15:34:47.907Z,1010.8
2022-08-10T15:36:04.148Z,1010.8
2022-08-10T15:37:20.398Z,1010.8
2022-08-10T15:38:36.624Z,1010.8
2022-08-10T15:39:52.877Z,1010.8
2022-08-10T15:41:09.115Z,1010.8
2022-08-10T15:42:25.357Z,1010.7
2022-08-10T15:43:41.589Z,1010.8
2022-08-10T15:44:57.829Z,1010.7
2022-08-10T15:46:14.086Z,1010.7
2022-08-10T15:47:30.310Z,1010.7
2022-08-10T15:48:46.549Z,1010.7
2022-08-10T15:50:02.790Z,1010.7
2022-08-10T15:51:18.054Z,1010.7
2022-08-10T15:52:34.294Z,1010.7
2022-08-10T15:53:50.527Z,1010.7
2022-08-10T15:55:06.776Z,1010.6
2022-08-10T15:56:23.013Z,1010.7
2022-08-10T15:57:39.242Z,1010.7
2022-08-10T15:58:55.493Z,1010.7
2022-08-10T16:00:11.725Z,1010.7
2022-08-10T16:01:27.964Z,1010.7
2022-08-10T16:02:44.221Z,1010.7
2022-08-10T16:04:00.445Z,1010.7
2022-08-10T16:05:16.696Z,1010.6